createdAt,value
2022-10-19T00:00:18.499Z,11.60
2022-10-19T00:02:45.240Z,11.60
2022-10-19T00:05:12.015Z,11.60
2022-10-19T00:07:38.928Z,11.60
2022-10-19T00:10:05.964Z,11.60
2022-10-19T00:12:32.610Z,11.50
2022-10-19T00:14:59.636Z,11.50
2022-10-19T00:17:26.325Z,11.50
2022-10-19T00:19:55.210Z,11.50
2022-10-19T00:22:22.069Z,11.40
2022-10-19T00:24:49.112Z,11.40
2022-10-19T00:27:16.517Z,11.40
2022-10-19T00:29:43.714Z,11.30
2022-10-19T00:32:10.596Z,11.30
2022-10-19T00:34:37.240Z,11.30
2022-10-19T00:37:43.651Z,11.40
2022-10-19T00:40:10.477Z,11.30
2022-10-19T00:42:37.208Z,11.30
2022-10-19T00:45:14.252Z,11.30
2022-10-19T00:47:41.384Z,11.20
2022-10-19T00:50:08.376Z,11.20
2022-10-19T00:52:35.404Z,11.20
2022-10-19T00:55:02.364Z,11.20
2022-10-19T00:57:29.582Z,11.10
2022-10-19T00:59:56.360Z,11.20
2022-10-19T01:02:23.097Z,11.10
2022-10-19T01:04:51.792Z,11.10
2022-10-19T01:07:18.737Z,11.10
2022-10-19T01:09:45.631Z,11.10
2022-10-19T01:12:34.156Z,11.10
2022-10-19T01:15:07.024Z,11.10
2022-10-19T01:17:36.917Z,11.20
2022-10-19T01:20:09.710Z,11.20
2022-10-19T01:22:36.733Z,11.20
2022-10-19T01:25:09.299Z,11.20
2022-10-19T01:27:54.941Z,11.20
2022-10-19T01:30:37.379Z,11.20
2022-10-19T01:33:14.176Z,11.20
2022-10-19T01:35:52.529Z,11.20
2022-10-19T01:38:23.852Z,11.20
2022-10-19T01:41:09.368Z,11.20
2022-10-19T01:43:39.080Z,11.20
2022-10-19T01:46:41.351Z,11.20
2022-10-19T01:49:13.222Z,11.20
2022-10-19T01:51:41.658Z,11.20
2022-10-19T01:54:09.726Z,11.10
2022-10-19T01:56:36.331Z,11.10
2022-10-19T01:59:03.704Z,11.10
2022-10-19T02:01:30.867Z,11.10
2022-10-19T02:03:57.628Z,11.10
2022-10-19T02:06:24.286Z,11.10
2022-10-19T02:08:51.708Z,11.10
2022-10-19T02:11:18.904Z,11.10
2022-10-19T02:13:46.243Z,11.10
2022-10-19T02:16:20.681Z,11.10
2022-10-19T02:18:47.796Z,11.20
2022-10-19T02:21:25.288Z,11.30
2022-10-19T02:23:54.189Z,11.30
2022-10-19T02:26:21.098Z,11.30
2022-10-19T02:28:48.054Z,11.40
2022-10-19T02:31:14.686Z,11.40
2022-10-19T02:33:41.414Z,11.50
2022-10-19T02:36:08.151Z,11.60
2022-10-19T02:38:35.044Z,11.60
2022-10-19T02:41:28.132Z,11.70
2022-10-19T02:43:59.214Z,11.70
2022-10-19T02:46:28.134Z,11.80
2022-10-19T02:48:55.037Z,11.80
2022-10-19T02:51:28.917Z,11.80
2022-10-19T02:53:55.686Z,11.90
2022-10-19T02:56:22.961Z,11.90
2022-10-19T02:58:49.783Z,11.90
2022-10-19T03:01:16.590Z,11.90
2022-10-19T03:03:52.522Z,12.00
2022-10-19T03:06:19.318Z,12.00
2022-10-19T03:08:46.285Z,12.10
2022-10-19T03:11:16.076Z,12.10
2022-10-19T03:13:43.433Z,12.10
2022-10-19T03:16:10.679Z,12.20
2022-10-19T03:18:37.571Z,12.20
2022-10-19T03:21:08.762Z,12.30
2022-10-19T03:23:35.827Z,12.30
2022-10-19T03:26:02.790Z,12.40
2022-10-19T03:28:29.486Z,12.40
2022-10-19T03:30:56.523Z,12.50
2022-10-19T03:33:23.296Z,12.50
2022-10-19T03:35:50.057Z,12.50
2022-10-19T03:38:16.937Z,12.60
2022-10-19T03:40:43.540Z,12.60
2022-10-19T03:43:10.251Z,12.60
2022-10-19T03:45:37.123Z,12.60
2022-10-19T03:48:03.965Z,12.70
2022-10-19T03:50:30.688Z,12.70
2022-10-19T03:52:57.505Z,12.70
2022-10-19T03:55:24.374Z,12.70
2022-10-19T03:57:51.218Z,12.70
2022-10-19T04:00:18.005Z,12.70
2022-10-19T04:02:44.715Z,12.70
2022-10-19T04:05:11.396Z,12.70
2022-10-19T04:07:38.093Z,12.70
2022-10-19T04:10:05.115Z,12.70
2022-10-19T04:12:31.791Z,12.70
2022-10-19T04:14:58.505Z,12.70
2022-10-19T04:17:25.471Z,12.70
2022-10-19T04:19:52.099Z,12.70
2022-10-19T04:22:18.728Z,12.70
2022-10-19T04:24:45.482Z,12.70
2022-10-19T04:27:12.246Z,12.80
2022-10-19T04:29:38.911Z,12.70
2022-10-19T04:32:05.671Z,12.80
2022-10-19T04:34:35.173Z,12.80
2022-10-19T04:37:04.393Z,12.80
2022-10-19T04:39:31.110Z,12.80
2022-10-19T04:41:57.998Z,12.80
2022-10-19T04:46:56.481Z,12.80
2022-10-19T04:49:23.156Z,12.80
2022-10-19T04:51:49.867Z,12.80
2022-10-19T04:54:16.763Z,12.80
2022-10-19T04:56:43.433Z,12.80
2022-10-19T04:59:10.115Z,12.80
2022-10-19T05:01:36.984Z,12.80
2022-10-19T05:04:03.758Z,12.70
2022-10-19T05:06:31.023Z,12.80
2022-10-19T05:08:57.758Z,12.80
2022-10-19T05:11:24.402Z,12.80
2022-10-19T05:13:51.236Z,12.80
2022-10-19T05:16:19.033Z,12.80
2022-10-19T05:18:58.971Z,12.80
2022-10-19T05:21:27.187Z,12.80
2022-10-19T05:23:54.198Z,12.80
2022-10-19T05:26:24.404Z,12.80
2022-10-19T05:28:56.243Z,12.80
2022-10-19T05:31:26.986Z,12.80
2022-10-19T05:33:53.799Z,12.70
2022-10-19T05:36:21.453Z,12.70
2022-10-19T05:38:48.901Z,12.70
2022-10-19T05:41:15.904Z,12.70
2022-10-19T05:43:42.617Z,12.70
2022-10-19T05:46:13.122Z,12.70
2022-10-19T05:48:39.851Z,12.70
2022-10-19T05:51:07.061Z,12.70
2022-10-19T05:53:33.797Z,12.70
2022-10-19T05:56:00.959Z,12.70
2022-10-19T05:58:27.715Z,12.70
2022-10-19T06:00:55.118Z,12.70
2022-10-19T06:03:22.155Z,12.70
2022-10-19T06:05:49.502Z,12.70
2022-10-19T06:08:16.670Z,12.70
2022-10-19T06:10:43.519Z,12.70
2022-10-19T06:13:10.306Z,12.70
2022-10-19T06:15:37.105Z,12.70
2022-10-19T06:18:04.238Z,12.70
2022-10-19T06:20:31.174Z,12.70
2022-10-19T06:22:58.117Z,12.70
2022-10-19T06:25:25.058Z,12.80
2022-10-19T06:27:51.898Z,12.80
2022-10-19T06:30:18.742Z,12.90
2022-10-19T06:32:45.532Z,12.90
2022-10-19T06:35:12.523Z,12.90
2022-10-19T06:37:39.156Z,13.00
2022-10-19T06:40:07.246Z,13.00
2022-10-19T06:42:34.160Z,13.00
2022-10-19T06:45:00.811Z,13.10
2022-10-19T06:47:31.519Z,13.10
2022-10-19T06:49:58.535Z,13.10
2022-10-19T06:52:25.347Z,13.10
2022-10-19T06:54:52.149Z,13.10
2022-10-19T06:57:19.065Z,13.10
2022-10-19T06:59:48.039Z,13.10
2022-10-19T07:02:16.930Z,13.20
2022-10-19T07:04:43.783Z,13.20
2022-10-19T07:07:10.724Z,13.20
2022-10-19T07:09:37.482Z,13.20
2022-10-19T07:12:04.249Z,13.20
2022-10-19T07:14:31.627Z,13.30
2022-10-19T07:16:58.302Z,13.30
2022-10-19T07:19:28.175Z,13.30
2022-10-19T07:21:54.899Z,13.40
2022-10-19T07:24:24.769Z,13.40
2022-10-19T07:26:51.471Z,13.40
2022-10-19T07:29:18.218Z,13.50
2022-10-19T07:31:44.889Z,13.50
2022-10-19T07:34:11.822Z,13.60
2022-10-19T07:36:39.777Z,13.60
2022-10-19T07:39:06.921Z,13.70
2022-10-19T07:41:34.675Z,13.70
2022-10-19T07:44:01.380Z,13.80
2022-10-19T07:46:29.276Z,13.90
2022-10-19T07:48:55.942Z,13.90
2022-10-19T07:51:22.707Z,14.00
2022-10-19T07:53:49.824Z,14.10
2022-10-19T07:56:20.800Z,14.20
2022-10-19T07:58:47.496Z,14.20
2022-10-19T08:01:17.958Z,14.30
2022-10-19T08:06:31.805Z,14.50
2022-10-19T08:08:58.593Z,14.60
2022-10-19T08:11:26.181Z,14.80
2022-10-19T08:13:53.135Z,14.90
2022-10-19T08:16:27.229Z,15.00
2022-10-19T08:18:55.949Z,15.10
2022-10-19T08:21:22.864Z,15.10
2022-10-19T08:23:49.705Z,15.10
2022-10-19T08:26:16.726Z,15.10
2022-10-19T08:28:43.415Z,15.20
2022-10-19T08:31:11.043Z,15.20
2022-10-19T08:33:37.694Z,15.20
2022-10-19T08:36:05.355Z,15.30
2022-10-19T08:38:32.159Z,15.40
2022-10-19T08:40:58.841Z,15.40
2022-10-19T08:43:34.897Z,15.50
2022-10-19T08:46:03.472Z,15.50
2022-10-19T08:48:33.017Z,15.60
2022-10-19T08:50:59.982Z,15.60
2022-10-19T08:53:45.205Z,15.70
2022-10-19T08:56:22.207Z,15.70
2022-10-19T08:59:08.610Z,15.70
2022-10-19T09:01:55.436Z,15.70
2022-10-19T09:04:25.310Z,15.70
2022-10-19T09:06:51.977Z,15.60
2022-10-19T09:09:18.753Z,15.60
2022-10-19T09:11:47.239Z,15.60
2022-10-19T09:14:16.396Z,15.60
2022-10-19T09:16:43.107Z,15.50
2022-10-19T09:19:13.814Z,15.50
2022-10-19T09:21:47.634Z,15.60
2022-10-19T09:24:16.128Z,15.50
2022-10-19T09:26:52.610Z,15.50
2022-10-19T09:29:22.211Z,15.50
2022-10-19T09:31:48.897Z,15.50
2022-10-19T09:34:17.336Z,15.60
2022-10-19T09:36:51.738Z,15.50
2022-10-19T09:39:18.642Z,15.60
2022-10-19T09:41:45.942Z,15.60
2022-10-19T09:44:12.621Z,15.60
2022-10-19T09:46:42.462Z,15.70
2022-10-19T09:49:09.133Z,15.70
2022-10-19T09:51:39.778Z,15.70
2022-10-19T09:54:06.505Z,15.80
2022-10-19T09:56:36.062Z,15.90
2022-10-19T09:59:02.784Z,15.90
2022-10-19T10:01:39.982Z,15.90
2022-10-19T10:04:18.922Z,16.00
2022-10-19T10:06:46.761Z,16.00
2022-10-19T10:09:16.949Z,16.10
2022-10-19T10:11:43.839Z,16.10
2022-10-19T10:14:20.679Z,16.20
2022-10-19T10:16:47.419Z,16.20
2022-10-19T10:19:15.115Z,16.30
2022-10-19T10:21:47.832Z,16.30
2022-10-19T10:24:16.313Z,16.40
2022-10-19T10:26:44.130Z,16.50
2022-10-19T10:29:37.448Z,16.50
2022-10-19T10:32:16.811Z,16.50
2022-10-19T10:34:51.317Z,16.60
2022-10-19T10:37:23.404Z,16.60
2022-10-19T10:39:53.828Z,16.60
2022-10-19T10:42:22.619Z,16.70
2022-10-19T10:44:49.569Z,16.70
2022-10-19T10:47:16.827Z,16.80
2022-10-19T10:49:43.630Z,16.80
2022-10-19T10:52:10.905Z,16.90
2022-10-19T10:54:37.542Z,16.90
2022-10-19T10:57:12.256Z,16.90
2022-10-19T10:59:45.467Z,17.00
2022-10-19T11:02:12.514Z,17.00
2022-10-19T11:04:39.981Z,17.00
2022-10-19T11:07:15.438Z,17.10
2022-10-19T11:09:52.864Z,17.20
2022-10-19T11:12:20.397Z,17.30
2022-10-19T11:14:47.228Z,17.30
2022-10-19T11:17:21.512Z,17.40
2022-10-19T11:19:50.223Z,17.40
2022-10-19T11:22:29.094Z,17.40
2022-10-19T11:24:59.019Z,17.50
2022-10-19T11:27:35.254Z,17.50
2022-10-19T11:30:08.830Z,17.40
2022-10-19T11:32:54.100Z,17.40
2022-10-19T11:35:29.977Z,17.40
2022-10-19T11:38:18.205Z,17.50
2022-10-19T11:41:06.097Z,17.80
2022-10-19T11:43:51.836Z,17.90
2022-10-19T11:46:24.353Z,18.40
2022-10-19T11:48:54.769Z,18.70
2022-10-19T11:51:22.431Z,18.90
2022-10-19T11:53:56.501Z,19.10
2022-10-19T11:56:39.223Z,19.40
2022-10-19T11:59:24.623Z,19.50
2022-10-19T12:01:51.367Z,19.60
2022-10-19T12:04:36.856Z,19.50
2022-10-19T12:07:14.446Z,19.40
2022-10-19T12:09:47.455Z,19.30
2022-10-19T12:12:33.422Z,19.30
2022-10-19T12:15:03.458Z,19.40
2022-10-19T12:17:31.381Z,19.40
2022-10-19T12:20:19.001Z,19.50
2022-10-19T12:22:46.730Z,19.60
2022-10-19T12:25:13.745Z,19.50
2022-10-19T12:27:40.663Z,19.40
2022-10-19T12:30:18.664Z,19.30
2022-10-19T12:32:53.418Z,19.30
2022-10-19T12:35:27.720Z,19.50
2022-10-19T12:37:55.887Z,19.50
2022-10-19T12:40:28.399Z,19.40
2022-10-19T12:42:58.258Z,19.50
2022-10-19T12:45:26.491Z,19.70
2022-10-19T12:48:08.762Z,19.90
2022-10-19T12:50:53.759Z,20.00
2022-10-19T12:53:27.842Z,20.00
2022-10-19T12:56:10.056Z,20.20
2022-10-19T12:58:43.638Z,20.40
2022-10-19T13:01:24.574Z,20.60
2022-10-19T13:04:06.137Z,20.80
2022-10-19T13:06:33.555Z,20.90
2022-10-19T13:09:02.315Z,21.00
2022-10-19T13:11:29.145Z,20.90
2022-10-19T13:13:57.363Z,20.90
2022-10-19T13:16:30.097Z,21.00
2022-10-19T13:18:59.942Z,21.00
2022-10-19T13:21:45.253Z,21.00
2022-10-19T13:24:21.191Z,21.00
2022-10-19T13:26:48.120Z,20.90
2022-10-19T13:29:24.666Z,20.80
2022-10-19T13:31:51.570Z,20.70
2022-10-19T13:34:18.254Z,20.60
2022-10-19T13:36:59.058Z,20.40
2022-10-19T13:39:26.944Z,20.20
2022-10-19T13:41:53.860Z,20.00
2022-10-19T13:44:25.163Z,19.80
2022-10-19T13:46:53.748Z,19.50
2022-10-19T13:49:32.783Z,19.30
2022-10-19T13:52:05.663Z,19.40
2022-10-19T13:54:35.437Z,19.60
2022-10-19T13:57:20.466Z,19.70
2022-10-19T13:59:47.163Z,19.80
2022-10-19T14:02:13.785Z,20.10
2022-10-19T14:05:03.469Z,20.30
2022-10-19T14:07:31.417Z,20.50
2022-10-19T14:10:00.682Z,20.70
2022-10-19T14:12:28.343Z,20.70
2022-10-19T14:14:55.039Z,20.70
2022-10-19T14:17:24.535Z,20.50
2022-10-19T14:19:55.306Z,20.50
2022-10-19T14:22:26.089Z,20.30
2022-10-19T14:24:52.759Z,20.10
2022-10-19T14:27:22.559Z,19.80
2022-10-19T14:29:49.847Z,19.60
2022-10-19T14:32:16.790Z,19.30
2022-10-19T14:34:47.114Z,19.00
2022-10-19T14:37:15.838Z,18.80
2022-10-19T14:39:42.482Z,18.60
2022-10-19T14:42:09.799Z,18.40
2022-10-19T14:44:38.635Z,18.20
2022-10-19T14:47:24.376Z,18.10
2022-10-19T14:49:51.182Z,18.00
2022-10-19T14:52:20.183Z,17.90
2022-10-19T14:54:47.625Z,17.90
2022-10-19T14:57:18.877Z,17.90
2022-10-19T14:59:46.756Z,17.90
2022-10-19T15:02:21.277Z,17.90
2022-10-19T15:04:50.891Z,18.00
2022-10-19T15:07:27.184Z,18.00
2022-10-19T15:09:57.982Z,18.00
2022-10-19T15:12:37.665Z,18.10
2022-10-19T15:15:14.398Z,18.10
2022-10-19T15:17:54.827Z,18.20
2022-10-19T15:20:25.982Z,18.20
2022-10-19T15:22:53.000Z,18.10
2022-10-19T15:25:24.021Z,17.80
2022-10-19T15:27:50.991Z,17.60
2022-10-19T15:30:17.730Z,17.40
2022-10-19T15:32:48.393Z,17.20
2022-10-19T15:35:31.443Z,17.10
2022-10-19T15:38:10.958Z,17.00
2022-10-19T15:40:41.376Z,16.80
2022-10-19T15:43:44.170Z,16.80
2022-10-19T15:46:13.568Z,16.60
2022-10-19T15:48:40.647Z,16.50
2022-10-19T15:51:29.039Z,16.50
2022-10-19T15:54:05.773Z,16.40
2022-10-19T15:56:33.551Z,16.30
2022-10-19T15:59:00.827Z,16.20
2022-10-19T16:01:31.429Z,16.20
2022-10-19T16:03:58.398Z,16.10
2022-10-19T16:06:26.263Z,16.00
2022-10-19T16:08:54.242Z,15.90
2022-10-19T16:11:21.987Z,15.90
2022-10-19T16:13:48.824Z,15.80
2022-10-19T16:16:20.480Z,15.70
2022-10-19T16:18:47.525Z,15.70
2022-10-19T16:21:14.224Z,15.70
2022-10-19T16:23:42.163Z,15.60
2022-10-19T16:26:09.301Z,15.60
2022-10-19T16:28:35.888Z,15.50
2022-10-19T16:31:03.061Z,15.50
2022-10-19T16:33:29.717Z,15.40
2022-10-19T16:35:56.415Z,15.40
2022-10-19T16:38:23.149Z,15.40
2022-10-19T16:40:49.977Z,15.30
2022-10-19T16:43:16.791Z,15.30
2022-10-19T16:45:44.182Z,15.20
2022-10-19T16:48:14.148Z,15.20
2022-10-19T16:50:40.953Z,15.20
2022-10-19T16:53:10.424Z,15.10
2022-10-19T16:55:37.799Z,15.10
2022-10-19T16:58:04.765Z,15.10
2022-10-19T17:00:31.786Z,15.00
2022-10-19T17:02:58.442Z,15.00
2022-10-19T17:05:28.497Z,15.00
2022-10-19T17:07:55.181Z,15.00
2022-10-19T17:10:22.105Z,15.00
2022-10-19T17:12:48.908Z,14.90
2022-10-19T17:15:41.322Z,14.90
2022-10-19T17:18:02.331Z,14.90
2022-10-19T17:20:28.915Z,14.90
2022-10-19T17:22:55.755Z,14.90
2022-10-19T17:25:22.439Z,14.90
2022-10-19T17:27:52.416Z,14.80
2022-10-19T17:30:19.086Z,14.80
2022-10-19T17:32:46.035Z,14.80
2022-10-19T17:35:12.998Z,14.80
2022-10-19T17:37:39.963Z,14.80
2022-10-19T17:40:07.424Z,14.80
2022-10-19T17:42:36.628Z,14.80
2022-10-19T17:45:04.126Z,14.70
2022-10-19T17:47:30.835Z,14.80
2022-10-19T17:49:57.596Z,14.70
2022-10-19T17:52:24.511Z,14.80
2022-10-19T17:55:11.079Z,14.80
2022-10-19T17:57:38.293Z,14.80
2022-10-19T18:00:05.923Z,14.80
2022-10-19T18:02:33.289Z,14.80
2022-10-19T18:05:00.009Z,14.80
2022-10-19T18:07:26.774Z,14.80
2022-10-19T18:09:53.675Z,14.80
2022-10-19T18:12:20.655Z,14.80
2022-10-19T18:14:47.280Z,14.90
2022-10-19T18:17:13.886Z,14.80
2022-10-19T18:19:40.653Z,14.80
2022-10-19T18:22:07.927Z,14.80
2022-10-19T18:24:34.743Z,14.90
2022-10-19T18:27:01.425Z,14.90
2022-10-19T18:29:28.512Z,14.90
2022-10-19T18:31:55.389Z,14.90
2022-10-19T18:34:22.797Z,14.90
2022-10-19T18:36:50.077Z,15.00
2022-10-19T18:39:16.803Z,15.00
2022-10-19T18:41:43.668Z,15.00
2022-10-19T18:44:11.623Z,15.00
2022-10-19T18:46:38.478Z,15.10
2022-10-19T18:49:06.809Z,15.10
2022-10-19T18:51:33.746Z,15.10
2022-10-19T18:54:00.403Z,15.10
2022-10-19T18:56:27.373Z,15.10
2022-10-19T18:58:54.125Z,15.10
2022-10-19T19:01:25.121Z,15.10
2022-10-19T19:03:52.391Z,15.10
2022-10-19T19:06:22.203Z,15.10
2022-10-19T19:08:48.909Z,15.10
2022-10-19T19:11:19.498Z,15.10
2022-10-19T19:13:50.509Z,15.10
2022-10-19T19:16:17.561Z,15.10
2022-10-19T19:18:47.300Z,15.00
2022-10-19T19:21:35.638Z,15.00
2022-10-19T19:24:03.157Z,15.10
2022-10-19T19:26:30.680Z,15.00
2022-10-19T19:28:57.889Z,15.10
2022-10-19T19:31:24.519Z,15.10
2022-10-19T19:33:51.177Z,15.00
2022-10-19T19:36:18.151Z,15.10
2022-10-19T19:38:45.200Z,15.10
2022-10-19T19:41:12.594Z,15.10
2022-10-19T19:43:39.362Z,15.10
2022-10-19T19:46:09.374Z,15.10
2022-10-19T19:48:36.697Z,15.10
2022-10-19T19:51:03.490Z,15.10
2022-10-19T19:53:30.299Z,15.10
2022-10-19T19:55:58.355Z,15.10
2022-10-19T19:58:25.098Z,15.10
2022-10-19T20:00:51.770Z,15.10
2022-10-19T20:03:18.480Z,15.10
2022-10-19T20:05:45.326Z,15.10
2022-10-19T20:08:12.072Z,15.20
2022-10-19T20:10:39.319Z,15.10
2022-10-19T20:13:05.974Z,15.10
2022-10-19T20:15:32.997Z,15.10
2022-10-19T20:18:02.804Z,15.20
2022-10-19T20:20:29.593Z,15.20
2022-10-19T20:22:56.886Z,15.20
2022-10-19T20:25:23.508Z,15.20
2022-10-19T20:27:50.340Z,15.20
2022-10-19T20:30:17.173Z,15.10
2022-10-19T20:32:44.068Z,15.20
2022-10-19T20:35:10.859Z,15.10
2022-10-19T20:37:37.837Z,15.10
2022-10-19T20:40:08.557Z,15.10
2022-10-19T20:42:36.148Z,15.10
2022-10-19T20:45:03.395Z,15.10
2022-10-19T20:47:30.266Z,15.00
2022-10-19T20:49:57.089Z,15.10
2022-10-19T20:52:23.814Z,15.00
2022-10-19T20:54:50.695Z,15.30
2022-10-19T20:57:17.411Z,15.00
2022-10-19T20:59:45.677Z,15.00
2022-10-19T21:02:15.440Z,14.30
2022-10-19T21:04:42.238Z,14.90
2022-10-19T21:07:08.926Z,14.90
2022-10-19T21:09:35.900Z,14.90
2022-10-19T21:12:02.569Z,14.80
2022-10-19T21:14:29.461Z,14.80
2022-10-19T21:16:58.970Z,14.80
2022-10-19T21:19:26.048Z,14.80
2022-10-19T21:21:55.649Z,14.80
2022-10-19T21:24:26.272Z,14.70
2022-10-19T21:26:53.154Z,14.70
2022-10-19T21:29:19.922Z,14.70
2022-10-19T21:31:48.793Z,14.70
2022-10-19T21:34:16.818Z,14.70
2022-10-19T21:36:43.646Z,14.70
2022-10-19T21:39:10.491Z,14.80
2022-10-19T21:41:37.326Z,14.80
2022-10-19T21:44:04.210Z,14.80
2022-10-19T21:46:30.906Z,14.80
2022-10-19T21:48:57.720Z,14.80
2022-10-19T21:51:35.162Z,14.80
2022-10-19T21:54:02.579Z,14.80
2022-10-19T21:56:29.284Z,14.80
2022-10-19T21:58:56.032Z,14.80
2022-10-19T22:01:23.482Z,14.80
2022-10-19T22:03:50.546Z,14.80
2022-10-19T22:06:17.252Z,14.80
2022-10-19T22:08:44.699Z,15.00
2022-10-19T22:11:11.999Z,14.80
2022-10-19T22:13:38.878Z,14.80
2022-10-19T22:16:05.635Z,14.80
2022-10-19T22:18:32.855Z,14.80
2022-10-19T22:21:03.701Z,14.80
2022-10-19T22:23:30.412Z,14.80
2022-10-19T22:25:57.203Z,14.80
2022-10-19T22:28:24.200Z,14.80
2022-10-19T22:30:54.508Z,14.80
2022-10-19T22:33:21.134Z,14.80
2022-10-19T22:35:54.923Z,14.80
2022-10-19T22:38:21.608Z,14.80
2022-10-19T22:40:48.360Z,14.80
2022-10-19T22:43:15.034Z,14.90
2022-10-19T22:45:41.781Z,14.80
2022-10-19T22:48:08.406Z,14.80
2022-10-19T22:50:35.150Z,14.80
2022-10-19T22:53:01.905Z,14.80
2022-10-19T22:55:28.567Z,14.80
2022-10-19T22:57:55.278Z,14.90
2022-10-19T23:00:21.933Z,14.90
2022-10-19T23:02:48.643Z,14.90
2022-10-19T23:05:15.347Z,14.90
2022-10-19T23:07:42.162Z,14.90
2022-10-19T23:10:08.990Z,14.90
2022-10-19T23:12:35.680Z,14.90
2022-10-19T23:15:02.855Z,14.90
2022-10-19T23:17:29.571Z,14.90
2022-10-19T23:19:56.446Z,14.90
2022-10-19T23:22:23.157Z,14.80
2022-10-19T23:24:49.900Z,14.80
2022-10-19T23:27:16.523Z,14.80
2022-10-19T23:29:43.207Z,14.80
2022-10-19T23:32:09.942Z,14.80
2022-10-19T23:34:36.634Z,14.80
2022-10-19T23:37:03.527Z,14.80
2022-10-19T23:39:30.295Z,14.80
2022-10-19T23:41:57.123Z,14.70
2022-10-19T23:44:23.750Z,14.70
2022-10-19T23:46:50.568Z,14.60
2022-10-19T23:49:17.392Z,14.60
2022-10-19T23:51:53.479Z,14.60
2022-10-19T23:54:20.127Z,14.60
2022-10-19T23:56:46.868Z,14.60
2022-10-19T23:59:13.531Z,14.60
